createdAt,value
2023-08-07T00:00:21.033Z,15.59
2023-08-07T00:03:08.953Z,15.40
2023-08-07T00:05:36.809Z,15.42
2023-08-07T00:08:06.362Z,15.46
2023-08-07T00:10:33.717Z,15.48
2023-08-07T00:13:01.496Z,15.42
2023-08-07T00:15:28.977Z,15.58
2023-08-07T00:17:56.866Z,15.52
2023-08-07T00:20:24.648Z,15.58
2023-08-07T00:22:52.655Z,15.62
2023-08-07T00:25:21.858Z,15.57
2023-08-07T00:27:50.348Z,15.57
2023-08-07T00:30:17.800Z,15.53
2023-08-07T00:32:46.070Z,15.52
2023-08-07T00:35:13.569Z,15.50
2023-08-07T00:37:41.394Z,15.49
2023-08-07T00:40:10.082Z,15.57
2023-08-07T00:42:39.307Z,15.44
2023-08-07T00:45:07.604Z,15.49
2023-08-07T00:47:35.642Z,15.41
2023-08-07T00:50:05.018Z,15.28
2023-08-07T00:52:34.026Z,15.47
2023-08-07T00:55:01.557Z,15.53
2023-08-07T00:57:29.605Z,15.65
2023-08-07T01:00:22.096Z,15.68
2023-08-07T01:02:53.402Z,15.63
2023-08-07T01:05:21.676Z,15.72
2023-08-07T01:07:49.853Z,15.79
2023-08-07T01:10:17.469Z,15.78
2023-08-07T01:12:53.247Z,15.86
2023-08-07T01:15:26.678Z,15.99
2023-08-07T01:17:56.934Z,16.03
2023-08-07T01:20:24.858Z,16.03
2023-08-07T01:22:54.022Z,16.07
2023-08-07T01:25:21.731Z,16.13
2023-08-07T01:27:56.280Z,16.16
2023-08-07T01:30:30.308Z,16.01
2023-08-07T01:33:05.819Z,15.97
2023-08-07T01:35:36.390Z,15.99
2023-08-07T01:38:10.229Z,15.98
2023-08-07T01:40:40.190Z,16.08
2023-08-07T01:43:08.398Z,16.06
2023-08-07T01:45:35.916Z,16.11
2023-08-07T01:48:04.284Z,16.13
2023-08-07T01:50:32.884Z,16.08
2023-08-07T01:53:00.738Z,16.00
2023-08-07T01:55:29.561Z,16.00
2023-08-07T01:57:57.413Z,15.94
2023-08-07T02:00:24.893Z,15.70
2023-08-07T02:02:57.378Z,15.55
2023-08-07T02:05:25.173Z,15.42
2023-08-07T02:07:52.923Z,15.23
2023-08-07T02:10:20.423Z,15.29
2023-08-07T02:12:53.363Z,15.23
2023-08-07T02:15:20.804Z,15.34
2023-08-07T02:17:48.574Z,15.37
2023-08-07T02:20:16.097Z,15.41
2023-08-07T02:22:43.920Z,15.48
2023-08-07T02:25:11.400Z,15.43
2023-08-07T02:27:39.392Z,15.63
2023-08-07T02:30:09.065Z,15.81
2023-08-07T02:32:36.962Z,15.70
2023-08-07T02:35:05.244Z,15.61
2023-08-07T02:37:32.956Z,15.56
2023-08-07T02:40:00.295Z,15.62
2023-08-07T02:42:28.094Z,15.66
2023-08-07T02:44:55.467Z,15.73
2023-08-07T02:47:24.761Z,15.70
2023-08-07T02:49:52.231Z,15.59
2023-08-07T02:52:20.065Z,15.68
2023-08-07T02:54:47.734Z,15.73
2023-08-07T02:57:15.578Z,15.80
2023-08-07T02:59:43.125Z,15.78
2023-08-07T03:02:10.959Z,15.73
2023-08-07T03:04:39.786Z,15.73
2023-08-07T03:07:07.673Z,15.72
2023-08-07T03:09:35.111Z,15.78
2023-08-07T03:12:03.553Z,15.74
2023-08-07T03:14:35.769Z,15.90
2023-08-07T03:17:03.799Z,15.98
2023-08-07T03:19:31.699Z,16.03
2023-08-07T03:22:04.931Z,16.12
2023-08-07T03:24:32.429Z,16.11
2023-08-07T03:27:00.287Z,16.16
2023-08-07T03:29:28.091Z,16.28
2023-08-07T03:31:55.898Z,16.23
2023-08-07T03:34:23.275Z,16.21
2023-08-07T03:36:51.188Z,16.12
2023-08-07T03:39:24.487Z,16.11
2023-08-07T03:41:52.435Z,16.22
2023-08-07T03:44:19.887Z,16.28
2023-08-07T03:46:47.756Z,16.36
2023-08-07T03:49:15.390Z,16.28
2023-08-07T03:51:43.279Z,16.37
2023-08-07T03:54:10.798Z,16.32
2023-08-07T03:56:40.007Z,16.39
2023-08-07T03:59:07.680Z,16.40
2023-08-07T04:01:35.478Z,16.30
2023-08-07T04:04:03.042Z,16.29
2023-08-07T04:06:30.968Z,16.33
2023-08-07T04:09:02.769Z,16.47
2023-08-07T04:11:30.573Z,16.58
2023-08-07T04:13:59.479Z,16.65
2023-08-07T04:16:27.293Z,16.70
2023-08-07T04:18:54.766Z,16.75
2023-08-07T04:21:22.690Z,16.62
2023-08-07T04:23:50.188Z,16.50
2023-08-07T04:26:18.030Z,16.60
2023-08-07T04:28:45.524Z,16.52
2023-08-07T04:31:14.932Z,16.68
2023-08-07T04:33:42.423Z,16.74
2023-08-07T04:36:14.369Z,16.75
2023-08-07T04:38:41.701Z,16.76
2023-08-07T04:41:09.609Z,16.62
2023-08-07T04:43:37.257Z,16.64
2023-08-07T04:46:05.141Z,16.75
2023-08-07T04:48:34.092Z,16.84
2023-08-07T04:51:02.018Z,16.70
2023-08-07T04:53:29.822Z,16.73
2023-08-07T04:55:57.682Z,16.77
2023-08-07T04:58:25.155Z,16.76
2023-08-07T05:00:56.731Z,16.80
2023-08-07T05:03:24.255Z,16.88
2023-08-07T05:05:59.563Z,16.63
2023-08-07T05:08:26.925Z,16.68
2023-08-07T05:10:54.716Z,16.52
2023-08-07T05:13:22.106Z,16.30
2023-08-07T05:15:50.191Z,16.22
2023-08-07T05:18:17.594Z,16.26
2023-08-07T05:20:45.423Z,16.35
2023-08-07T05:23:14.299Z,16.40
2023-08-07T05:25:42.111Z,16.59
2023-08-07T05:28:09.511Z,16.51
2023-08-07T05:30:37.615Z,16.58
2023-08-07T05:33:05.111Z,16.51
2023-08-07T05:35:33.163Z,16.28
2023-08-07T05:38:00.543Z,16.12
2023-08-07T05:40:29.709Z,16.33
2023-08-07T05:42:57.307Z,16.37
2023-08-07T05:45:25.074Z,16.43
2023-08-07T05:47:52.523Z,16.58
2023-08-07T05:50:20.383Z,16.75
2023-08-07T05:52:47.834Z,16.58
2023-08-07T05:55:15.833Z,16.50
2023-08-07T05:57:44.841Z,16.44
2023-08-07T06:00:13.324Z,16.45
2023-08-07T06:02:40.744Z,16.55
2023-08-07T06:05:13.365Z,16.60
2023-08-07T06:07:40.826Z,16.67
2023-08-07T06:10:09.361Z,16.57
2023-08-07T06:12:36.816Z,16.58
2023-08-07T06:15:11.215Z,16.56
2023-08-07T06:17:38.708Z,16.65
2023-08-07T06:20:10.413Z,16.62
2023-08-07T06:22:39.203Z,16.57
2023-08-07T06:25:07.919Z,16.44
2023-08-07T06:27:35.535Z,16.36
2023-08-07T06:30:03.771Z,16.37
2023-08-07T06:32:33.110Z,16.41
2023-08-07T06:35:00.937Z,16.53
2023-08-07T06:37:28.327Z,16.65
2023-08-07T06:39:56.075Z,16.73
2023-08-07T06:42:23.581Z,16.63
2023-08-07T06:44:51.544Z,16.72
2023-08-07T06:47:18.909Z,16.73
2023-08-07T06:49:48.102Z,16.90
2023-08-07T06:52:15.522Z,17.05
2023-08-07T06:54:43.328Z,17.18
2023-08-07T06:57:10.833Z,17.26
2023-08-07T06:59:38.611Z,17.20
2023-08-07T07:02:06.712Z,17.25
2023-08-07T07:04:34.504Z,17.35
2023-08-07T07:07:07.404Z,17.64
2023-08-07T07:09:38.046Z,17.81
2023-08-07T07:12:06.180Z,17.97
2023-08-07T07:14:34.271Z,18.06
2023-08-07T07:17:01.685Z,18.31
2023-08-07T07:19:29.581Z,18.34
2023-08-07T07:21:57.138Z,18.42
2023-08-07T07:24:26.547Z,18.14
2023-08-07T07:26:54.074Z,18.05
2023-08-07T07:29:21.771Z,18.06
2023-08-07T07:31:50.544Z,18.25
2023-08-07T07:34:24.382Z,18.50
2023-08-07T07:36:51.829Z,18.38
2023-08-07T07:39:19.724Z,18.52
2023-08-07T07:41:48.522Z,18.66
2023-08-07T07:44:16.424Z,18.90
2023-08-07T07:46:43.837Z,18.96
2023-08-07T07:49:11.695Z,18.98
2023-08-07T07:51:39.150Z,19.10
2023-08-07T07:56:37.431Z,19.32
2023-08-07T07:59:10.277Z,19.08
2023-08-07T08:01:37.769Z,19.16
2023-08-07T08:04:06.005Z,19.33
2023-08-07T08:06:33.518Z,19.39
2023-08-07T08:09:01.409Z,19.47
2023-08-07T08:11:28.871Z,19.52
2023-08-07T08:13:56.786Z,19.50
2023-08-07T08:16:25.796Z,19.31
2023-08-07T08:18:53.649Z,19.39
2023-08-07T08:21:20.993Z,19.37
2023-08-07T08:23:53.382Z,19.48
2023-08-07T08:26:21.057Z,19.45
2023-08-07T08:28:48.945Z,19.45
2023-08-07T08:31:16.339Z,19.22
2023-08-07T08:33:49.506Z,19.16
2023-08-07T08:36:16.901Z,19.28
2023-08-07T08:38:45.030Z,19.28
2023-08-07T08:41:12.639Z,19.14
2023-08-07T08:43:42.024Z,19.19
2023-08-07T08:46:14.793Z,19.40
2023-08-07T08:48:51.241Z,19.82
2023-08-07T08:51:20.504Z,20.47
2023-08-07T08:53:48.750Z,20.32
2023-08-07T08:56:16.998Z,20.26
2023-08-07T08:58:50.085Z,20.30
2023-08-07T09:01:19.263Z,20.59
2023-08-07T09:03:56.984Z,20.87
2023-08-07T09:06:24.768Z,20.69
2023-08-07T09:08:54.618Z,20.13
2023-08-07T09:11:22.165Z,19.96
2023-08-07T09:13:50.521Z,20.21
2023-08-07T09:16:19.000Z,20.62
2023-08-07T09:18:48.339Z,20.93
2023-08-07T09:21:15.976Z,20.72
2023-08-07T09:23:43.952Z,21.07
2023-08-07T09:26:12.250Z,21.25
2023-08-07T09:28:40.215Z,21.44
2023-08-07T09:31:08.105Z,21.18
2023-08-07T09:33:35.970Z,21.19
2023-08-07T09:36:09.744Z,21.22
2023-08-07T09:38:37.647Z,21.30
2023-08-07T09:41:05.376Z,21.62
2023-08-07T09:43:40.692Z,21.42
2023-08-07T09:46:08.810Z,21.71
2023-08-07T09:48:41.553Z,21.78
2023-08-07T09:51:14.445Z,21.57
2023-08-07T09:53:43.304Z,21.19
2023-08-07T09:56:10.748Z,21.26
2023-08-07T09:58:38.497Z,21.16
2023-08-07T10:01:06.079Z,21.09
2023-08-07T10:03:34.574Z,21.03
2023-08-07T10:06:02.624Z,21.07
2023-08-07T10:08:33.172Z,21.40
2023-08-07T10:11:01.337Z,21.86
2023-08-07T10:16:02.149Z,22.19
2023-08-07T10:18:30.079Z,21.94
2023-08-07T10:21:01.688Z,22.06
2023-08-07T10:23:35.738Z,22.37
2023-08-07T10:26:05.578Z,22.57
2023-08-07T10:28:36.969Z,22.75
2023-08-07T10:31:05.080Z,22.99
2023-08-07T10:33:33.733Z,23.21
2023-08-07T10:36:01.316Z,23.15
2023-08-07T10:38:31.096Z,23.17
2023-08-07T10:41:06.969Z,23.51
2023-08-07T10:43:38.413Z,23.37
2023-08-07T10:46:06.468Z,23.34
2023-08-07T10:48:39.986Z,23.49
2023-08-07T10:51:07.922Z,23.68
2023-08-07T10:53:38.273Z,23.59
2023-08-07T10:56:16.005Z,23.60
2023-08-07T10:58:49.121Z,23.71
2023-08-07T11:01:24.014Z,23.48
2023-08-07T11:03:53.253Z,23.25
2023-08-07T11:06:24.165Z,23.41
2023-08-07T11:08:52.214Z,23.68
2023-08-07T11:11:23.519Z,23.75
2023-08-07T11:13:51.754Z,23.53
2023-08-07T11:16:21.408Z,23.74
2023-08-07T11:18:50.497Z,23.82
2023-08-07T11:21:18.072Z,23.94
2023-08-07T11:23:50.368Z,23.46
2023-08-07T11:26:17.896Z,23.09
2023-08-07T11:28:47.275Z,22.80
2023-08-07T11:31:15.046Z,23.11
2023-08-07T11:33:42.986Z,23.20
2023-08-07T11:36:14.461Z,22.83
2023-08-07T11:38:44.260Z,22.47
2023-08-07T11:41:13.252Z,22.27
2023-08-07T11:43:41.916Z,21.84
2023-08-07T11:46:12.256Z,21.47
2023-08-07T11:48:41.134Z,21.07
2023-08-07T11:51:08.899Z,20.46
2023-08-07T11:53:38.303Z,19.49
2023-08-07T11:56:06.991Z,19.18
2023-08-07T11:58:36.442Z,19.10
2023-08-07T12:01:07.868Z,18.94
2023-08-07T12:03:38.377Z,18.68
2023-08-07T12:06:07.878Z,18.73
2023-08-07T12:08:37.174Z,18.85
2023-08-07T12:11:06.430Z,19.00
2023-08-07T12:13:38.199Z,19.32
2023-08-07T12:16:06.519Z,19.45
2023-08-07T12:18:51.992Z,19.73
2023-08-07T12:21:21.836Z,19.75
2023-08-07T12:23:50.043Z,19.99
2023-08-07T12:26:22.806Z,20.14
2023-08-07T12:28:58.214Z,20.32
2023-08-07T12:31:25.668Z,20.65
2023-08-07T12:34:35.472Z,20.76
2023-08-07T12:36:45.661Z,20.85
2023-08-07T12:39:13.525Z,20.51
2023-08-07T12:44:11.721Z,20.54
2023-08-07T12:46:40.253Z,20.27
2023-08-07T12:49:11.337Z,20.33
2023-08-07T12:51:38.779Z,20.02
2023-08-07T12:54:09.592Z,19.53
2023-08-07T12:56:37.018Z,19.44
2023-08-07T12:59:04.832Z,19.37
2023-08-07T13:01:32.534Z,19.35
2023-08-07T13:04:00.432Z,19.36
2023-08-07T13:06:33.343Z,19.65
2023-08-07T13:09:01.305Z,19.97
2023-08-07T13:11:28.827Z,20.05
2023-08-07T13:13:56.796Z,20.11
2023-08-07T13:16:24.537Z,20.51
2023-08-07T13:18:52.408Z,20.91
2023-08-07T13:21:19.903Z,21.18
2023-08-07T13:23:49.093Z,21.50
2023-08-07T13:26:16.649Z,21.63
2023-08-07T13:28:44.475Z,21.88
2023-08-07T13:31:11.994Z,22.46
2023-08-07T13:33:44.247Z,22.93
2023-08-07T13:36:11.658Z,22.70
2023-08-07T13:38:46.775Z,22.58
2023-08-07T13:41:16.550Z,22.55
2023-08-07T13:43:44.344Z,22.32
2023-08-07T13:46:11.866Z,22.26
2023-08-07T13:48:39.724Z,22.25
2023-08-07T13:51:07.224Z,21.99
2023-08-07T13:53:35.059Z,21.52
2023-08-07T13:56:02.540Z,21.42
2023-08-07T13:58:35.450Z,21.13
2023-08-07T14:01:02.894Z,20.48
2023-08-07T14:03:36.093Z,20.22
2023-08-07T14:06:03.928Z,19.96
2023-08-07T14:08:31.851Z,19.94
2023-08-07T14:10:59.371Z,19.95
2023-08-07T14:13:32.945Z,20.19
2023-08-07T14:16:00.471Z,20.89
2023-08-07T14:18:33.474Z,21.38
2023-08-07T14:21:03.285Z,21.76
2023-08-07T14:23:37.424Z,21.98
2023-08-07T14:26:04.804Z,21.65
2023-08-07T14:28:38.508Z,21.64
2023-08-07T14:31:08.561Z,21.66
2023-08-07T14:33:37.325Z,21.76
2023-08-07T14:36:05.501Z,21.79
2023-08-07T14:38:37.313Z,21.87
2023-08-07T14:41:04.985Z,21.77
2023-08-07T14:43:42.495Z,21.83
2023-08-07T14:46:10.069Z,21.77
2023-08-07T14:48:42.386Z,21.68
2023-08-07T14:51:10.000Z,21.35
2023-08-07T14:53:38.009Z,21.16
2023-08-07T14:56:05.489Z,20.90
2023-08-07T14:58:33.457Z,20.92
2023-08-07T15:01:02.411Z,20.93
2023-08-07T15:03:32.937Z,20.90
2023-08-07T15:06:06.799Z,20.85
2023-08-07T15:08:49.050Z,20.98
2023-08-07T15:14:05.778Z,20.91
2023-08-07T15:16:58.766Z,21.02
2023-08-07T15:19:26.369Z,21.06
2023-08-07T15:22:12.799Z,20.80
2023-08-07T15:24:43.220Z,20.83
2023-08-07T15:27:22.765Z,20.64
2023-08-07T15:29:50.279Z,20.52
2023-08-07T15:32:24.593Z,20.55
2023-08-07T15:34:56.750Z,20.49
2023-08-07T15:37:24.827Z,20.58
2023-08-07T15:39:52.477Z,20.76
2023-08-07T15:42:25.789Z,20.82
2023-08-07T15:44:58.783Z,20.67
2023-08-07T15:47:36.497Z,20.58
2023-08-07T15:50:08.172Z,20.72
2023-08-07T15:53:00.777Z,20.61
2023-08-07T15:55:34.765Z,20.60
2023-08-07T15:58:03.143Z,20.42
2023-08-07T16:00:36.234Z,20.33
2023-08-07T16:03:06.642Z,20.16
2023-08-07T16:05:35.553Z,20.16
2023-08-07T16:08:03.836Z,20.32
2023-08-07T16:10:36.775Z,20.27
2023-08-07T16:13:04.859Z,20.29
2023-08-07T16:15:32.837Z,20.23
2023-08-07T16:18:00.365Z,20.14
2023-08-07T16:23:36.724Z,20.03
2023-08-07T16:26:04.648Z,19.78
2023-08-07T16:31:33.546Z,19.18
2023-08-07T16:34:12.777Z,19.18
2023-08-07T16:39:21.725Z,19.21
2023-08-07T16:42:00.852Z,19.27
2023-08-07T16:51:49.925Z,19.50
2023-08-07T16:54:42.770Z,19.20
2023-08-07T16:57:10.395Z,19.04
2023-08-07T17:02:37.210Z,18.95
2023-08-07T17:05:10.821Z,18.82
2023-08-07T17:07:38.307Z,18.75
2023-08-07T17:10:07.694Z,18.90
2023-08-07T17:12:37.119Z,18.83
2023-08-07T17:15:15.774Z,18.78
2023-08-07T17:17:54.519Z,18.84
2023-08-07T17:20:42.790Z,18.73
2023-08-07T17:23:22.402Z,18.83
2023-08-07T17:26:02.825Z,18.82
2023-08-07T17:34:29.503Z,18.46
2023-08-07T17:37:01.817Z,18.37
2023-08-07T17:39:32.471Z,18.38
2023-08-07T17:42:05.616Z,18.48
2023-08-07T17:44:33.099Z,18.26
2023-08-07T17:49:59.923Z,18.23
2023-08-07T17:52:42.930Z,18.14
2023-08-07T17:55:10.682Z,18.01
2023-08-07T17:57:53.965Z,17.93
2023-08-07T18:00:26.823Z,17.99
2023-08-07T18:03:09.398Z,17.96
2023-08-07T18:05:47.800Z,17.84
2023-08-07T18:08:15.837Z,17.76
2023-08-07T18:10:48.771Z,17.76
2023-08-07T18:13:23.315Z,17.66
2023-08-07T18:15:50.900Z,17.75
2023-08-07T18:18:31.804Z,17.71
2023-08-07T18:21:13.827Z,17.75
2023-08-07T18:23:56.168Z,17.73
2023-08-07T18:29:56.775Z,17.60
2023-08-07T18:32:30.629Z,17.71
2023-08-07T18:34:58.412Z,17.74
2023-08-07T18:40:21.969Z,17.69
2023-08-07T18:45:50.463Z,17.50
2023-08-07T18:48:18.630Z,17.41
2023-08-07T18:50:50.785Z,17.25
2023-08-07T18:56:33.835Z,17.27
2023-08-07T18:59:07.830Z,17.15
2023-08-07T19:01:36.815Z,17.20
2023-08-07T19:07:18.097Z,17.09
2023-08-07T19:09:46.174Z,17.08
2023-08-07T19:12:13.724Z,16.94
2023-08-07T19:14:45.773Z,16.99
2023-08-07T19:17:14.793Z,16.97
2023-08-07T19:19:46.780Z,16.94
2023-08-07T19:22:16.966Z,16.86
2023-08-07T19:24:47.319Z,16.89
2023-08-07T19:27:14.974Z,16.91
2023-08-07T19:29:42.990Z,16.88
2023-08-07T19:32:11.201Z,16.71
2023-08-07T19:34:40.641Z,16.71
2023-08-07T19:37:08.253Z,16.77
2023-08-07T19:39:40.586Z,16.75
2023-08-07T19:42:08.896Z,16.75
2023-08-07T19:44:36.950Z,16.78
2023-08-07T19:47:10.242Z,16.79
2023-08-07T19:49:43.226Z,16.70
2023-08-07T19:52:10.872Z,16.70
2023-08-07T19:54:38.949Z,16.53
2023-08-07T19:57:06.756Z,16.56
2023-08-07T19:59:39.654Z,16.36
2023-08-07T20:02:07.616Z,16.35
2023-08-07T20:04:56.820Z,16.27
2023-08-07T20:07:24.531Z,16.25
2023-08-07T20:09:57.742Z,16.15
2023-08-07T20:12:25.284Z,16.11
2023-08-07T20:14:53.452Z,16.00
2023-08-07T20:17:21.109Z,16.03
2023-08-07T20:19:50.639Z,15.94
2023-08-07T20:22:18.381Z,15.98
2023-08-07T20:24:47.058Z,15.95
2023-08-07T20:27:14.715Z,15.90
2023-08-07T20:29:47.417Z,15.89
2023-08-07T20:32:15.172Z,15.87
2023-08-07T20:34:43.012Z,15.78
2023-08-07T20:37:12.217Z,15.78
2023-08-07T20:39:42.646Z,15.72
2023-08-07T20:42:10.653Z,15.68
2023-08-07T20:44:40.648Z,15.74
2023-08-07T20:47:14.184Z,15.71
2023-08-07T20:49:42.154Z,15.70
2023-08-07T20:52:11.190Z,15.63
2023-08-07T20:54:39.335Z,15.66
2023-08-07T20:57:07.520Z,15.68
2023-08-07T20:59:40.470Z,15.61
2023-08-07T21:02:08.196Z,15.44
2023-08-07T21:04:39.454Z,15.44
2023-08-07T21:07:10.925Z,15.36
2023-08-07T21:09:38.791Z,15.33
2023-08-07T21:12:07.432Z,15.33
2023-08-07T21:14:35.428Z,15.42
2023-08-07T21:17:06.472Z,15.50
2023-08-07T21:19:38.957Z,15.31
2023-08-07T21:22:11.484Z,15.25
2023-08-07T21:24:43.755Z,15.23
2023-08-07T21:27:13.893Z,15.11
2023-08-07T21:29:46.788Z,15.14
2023-08-07T21:32:14.207Z,15.15
2023-08-07T21:34:42.100Z,15.10
2023-08-07T21:37:13.978Z,15.12
2023-08-07T21:39:58.790Z,15.12
2023-08-07T21:42:26.334Z,15.06
2023-08-07T21:44:56.660Z,15.00
2023-08-07T21:47:24.308Z,15.10
2023-08-07T21:50:07.724Z,15.18
2023-08-07T21:52:46.303Z,15.23
2023-08-07T21:55:19.190Z,15.21
2023-08-07T21:57:49.776Z,15.27
2023-08-07T22:00:22.763Z,15.28
2023-08-07T22:02:50.321Z,15.14
2023-08-07T22:05:23.741Z,15.18
2023-08-07T22:07:52.820Z,15.13
2023-08-07T22:10:23.595Z,15.14
2023-08-07T22:12:52.704Z,15.20
2023-08-07T22:15:28.570Z,15.10
2023-08-07T22:18:02.832Z,15.10
2023-08-07T22:20:30.957Z,15.04
2023-08-07T22:23:11.766Z,15.08
2023-08-07T22:25:39.770Z,15.24
2023-08-07T22:28:14.775Z,15.10
2023-08-07T22:30:52.782Z,15.06
2023-08-07T22:33:20.621Z,15.14
2023-08-07T22:35:48.624Z,15.00
2023-08-07T22:38:25.793Z,15.02
2023-08-07T22:41:05.785Z,15.00
2023-08-07T22:43:38.857Z,15.08
2023-08-07T22:46:11.295Z,15.18
2023-08-07T22:48:41.488Z,15.27
2023-08-07T22:51:22.816Z,15.19
2023-08-07T22:53:51.794Z,15.07
2023-08-07T22:56:24.956Z,15.08
2023-08-07T22:58:52.819Z,14.94
2023-08-07T23:01:20.754Z,14.96
2023-08-07T23:03:48.288Z,14.95
2023-08-07T23:06:16.164Z,14.94
2023-08-07T23:08:43.618Z,14.88
2023-08-07T23:11:12.880Z,14.96
2023-08-07T23:13:42.780Z,14.96
2023-08-07T23:16:10.716Z,14.98
2023-08-07T23:18:45.759Z,15.06
2023-08-07T23:21:13.520Z,15.05
2023-08-07T23:23:41.095Z,15.00
2023-08-07T23:26:17.452Z,15.09
2023-08-07T23:28:45.194Z,15.03
2023-08-07T23:31:13.163Z,15.15
2023-08-07T23:33:40.473Z,15.12
2023-08-07T23:36:08.478Z,15.14
2023-08-07T23:38:36.103Z,15.00
2023-08-07T23:41:04.228Z,14.98
2023-08-07T23:43:37.431Z,15.11
2023-08-07T23:46:09.763Z,15.11
2023-08-07T23:48:37.235Z,15.18
2023-08-07T23:51:05.183Z,15.20
2023-08-07T23:53:32.695Z,15.23
2023-08-07T23:56:00.743Z,15.20
2023-08-07T23:58:28.143Z,15.14
